sensor_id;sensor_type;location;lat;lon;timestamp;pressure;altitude;pressure_sealevel;temperature;humidity
48874;BME280;66155;46.204;5.220;2023-03-20T00:04:52;99136.13;;;11.10;68.11
48874;BME280;66155;46.204;5.220;2023-03-20T00:09:52;99140.25;;;11.06;67.96
48874;BME280;66155;46.204;5.220;2023-03-20T00:14:54;99136.78;;;11.00;67.94
48874;BME280;66155;46.204;5.220;2023-03-20T00:19:54;99130.53;;;11.01;67.65
48874;BME280;66155;46.204;5.220;2023-03-20T00:24:55;99132.13;;;11.02;67.62
48874;BME280;66155;46.204;5.220;2023-03-20T00:29:55;99122.72;;;11.01;67.87
48874;BME280;66155;46.204;5.220;2023-03-20T00:34:56;99125.34;;;11.01;67.66
48874;BME280;66155;46.204;5.220;2023-03-20T00:39:56;99119.53;;;10.99;67.89
48874;BME280;66155;46.204;5.220;2023-03-20T00:44:57;99118.53;;;11.00;67.48
48874;BME280;66155;46.204;5.220;2023-03-20T00:49:58;99122.41;;;10.98;67.65
48874;BME280;66155;46.204;5.220;2023-03-20T00:54:59;99129.88;;;10.94;67.97
48874;BME280;66155;46.204;5.220;2023-03-20T01:00:04;99136.94;;;10.94;67.85
48874;BME280;66155;46.204;5.220;2023-03-20T01:05:05;99136.84;;;10.89;68.26
48874;BME280;66155;46.204;5.220;2023-03-20T01:10:06;99131.56;;;10.83;68.29
48874;BME280;66155;46.204;5.220;2023-03-20T01:15:19;99128.63;;;10.80;68.10
48874;BME280;66155;46.204;5.220;2023-03-20T01:20:25;99126.28;;;10.78;68.08
48874;BME280;66155;46.204;5.220;2023-03-20T01:25:26;99124.13;;;10.75;68.13
48874;BME280;66155;46.204;5.220;2023-03-20T01:30:29;99137.63;;;10.72;67.97
48874;BME280;66155;46.204;5.220;2023-03-20T01:35:29;99135.19;;;10.65;68.63
48874;BME280;66155;46.204;5.220;2023-03-20T01:40:35;99137.38;;;10.57;68.93
48874;BME280;66155;46.204;5.220;2023-03-20T01:45:46;99133.03;;;10.45;69.15
48874;BME280;66155;46.204;5.220;2023-03-20T01:50:48;99145.19;;;10.28;69.63
48874;BME280;66155;46.204;5.220;2023-03-20T01:55:52;99138.81;;;10.07;70.02
48874;BME280;66155;46.204;5.220;2023-03-20T02:00:54;99141.69;;;9.94;70.37
48874;BME280;66155;46.204;5.220;2023-03-20T02:05:55;99143.97;;;9.78;70.77
48874;BME280;66155;46.204;5.220;2023-03-20T02:10:58;99139.81;;;9.54;71.15
48874;BME280;66155;46.204;5.220;2023-03-20T02:16:04;99138.16;;;9.24;73.39
48874;BME280;66155;46.204;5.220;2023-03-20T02:42:28;99135.22;;;9.08;72.82
48874;BME280;66155;46.204;5.220;2023-03-20T02:47:36;99131.13;;;9.12;72.68
48874;BME280;66155;46.204;5.220;2023-03-20T02:53:08;99142.22;;;9.20;72.46
48874;BME280;66155;46.204;5.220;2023-03-20T02:58:21;99146.16;;;9.34;71.66
48874;BME280;66155;46.204;5.220;2023-03-20T03:03:27;99151.84;;;9.31;71.65
48874;BME280;66155;46.204;5.220;2023-03-20T03:08:36;99147.28;;;9.14;72.56
48874;BME280;66155;46.204;5.220;2023-03-20T03:13:44;99159.31;;;9.27;71.48
48874;BME280;66155;46.204;5.220;2023-03-20T03:18:48;99152.50;;;9.14;71.97
48874;BME280;66155;46.204;5.220;2023-03-20T03:23:51;99159.72;;;9.01;72.59
48874;BME280;66155;46.204;5.220;2023-03-20T03:29:01;99155.97;;;8.97;73.28
48874;BME280;66155;46.204;5.220;2023-03-20T03:34:03;99166.25;;;8.91;73.01
48874;BME280;66155;46.204;5.220;2023-03-20T03:39:25;99166.13;;;8.86;72.77
48874;BME280;66155;46.204;5.220;2023-03-20T03:49:36;99182.97;;;8.84;73.10
48874;BME280;66155;46.204;5.220;2023-03-20T03:54:48;99182.53;;;8.87;73.24
48874;BME280;66155;46.204;5.220;2023-03-20T03:59:53;99170.00;;;8.96;72.73
48874;BME280;66155;46.204;5.220;2023-03-20T04:04:56;99180.97;;;8.98;72.92
48874;BME280;66155;46.204;5.220;2023-03-20T04:09:57;99184.56;;;8.97;73.06
48874;BME280;66155;46.204;5.220;2023-03-20T04:14:57;99180.16;;;8.97;72.99
48874;BME280;66155;46.204;5.220;2023-03-20T04:19:58;99174.94;;;8.85;74.50
48874;BME280;66155;46.204;5.220;2023-03-20T04:24:58;99174.16;;;8.97;73.22
48874;BME280;66155;46.204;5.220;2023-03-20T04:29:59;99169.53;;;8.99;73.02
48874;BME280;66155;46.204;5.220;2023-03-20T04:34:59;99174.72;;;8.99;72.88
48874;BME280;66155;46.204;5.220;2023-03-20T04:40:00;99186.59;;;8.94;73.43
48874;BME280;66155;46.204;5.220;2023-03-20T04:45:00;99180.41;;;8.96;73.28
48874;BME280;66155;46.204;5.220;2023-03-20T04:50:01;99170.91;;;9.01;73.34
48874;BME280;66155;46.204;5.220;2023-03-20T04:55:02;99168.66;;;9.05;73.12
48874;BME280;66155;46.204;5.220;2023-03-20T05:00:03;99173.94;;;8.98;73.49
48874;BME280;66155;46.204;5.220;2023-03-20T05:05:04;99170.34;;;8.99;73.98
48874;BME280;66155;46.204;5.220;2023-03-20T05:10:05;99176.69;;;9.03;73.48
48874;BME280;66155;46.204;5.220;2023-03-20T05:15:06;99170.34;;;9.11;73.33
48874;BME280;66155;46.204;5.220;2023-03-20T05:20:07;99167.22;;;9.21;72.96
48874;BME280;66155;46.204;5.220;2023-03-20T05:25:08;99175.56;;;9.23;73.05
48874;BME280;66155;46.204;5.220;2023-03-20T05:30:09;99181.56;;;9.11;73.37
48874;BME280;66155;46.204;5.220;2023-03-20T05:35:10;99175.41;;;9.06;73.34
48874;BME280;66155;46.204;5.220;2023-03-20T05:40:13;99189.09;;;9.01;72.78
48874;BME280;66155;46.204;5.220;2023-03-20T05:45:13;99188.63;;;8.92;73.61
48874;BME280;66155;46.204;5.220;2023-03-20T05:50:14;99191.22;;;8.92;73.52
48874;BME280;66155;46.204;5.220;2023-03-20T05:55:15;99192.22;;;8.80;73.93
48874;BME280;66155;46.204;5.220;2023-03-20T06:00:16;99192.31;;;8.73;74.16
48874;BME280;66155;46.204;5.220;2023-03-20T06:05:16;99187.25;;;8.78;73.48
48874;BME280;66155;46.204;5.220;2023-03-20T06:10:17;99193.25;;;8.90;73.31
48874;BME280;66155;46.204;5.220;2023-03-20T06:15:19;99200.03;;;8.91;74.12
48874;BME280;66155;46.204;5.220;2023-03-20T06:20:20;99201.50;;;8.87;74.24
48874;BME280;66155;46.204;5.220;2023-03-20T06:25:20;99194.34;;;8.83;74.09
48874;BME280;66155;46.204;5.220;2023-03-20T06:30:21;99204.44;;;8.91;74.15
48874;BME280;66155;46.204;5.220;2023-03-20T06:35:21;99217.34;;;8.98;73.93
48874;BME280;66155;46.204;5.220;2023-03-20T06:40:22;99210.81;;;9.07;73.50
48874;BME280;66155;46.204;5.220;2023-03-20T06:45:22;99208.38;;;9.24;73.35
48874;BME280;66155;46.204;5.220;2023-03-20T06:50:23;99219.53;;;9.36;73.21
48874;BME280;66155;46.204;5.220;2023-03-20T06:55:23;99220.81;;;9.45;73.04
48874;BME280;66155;46.204;5.220;2023-03-20T07:00:24;99221.25;;;9.66;72.68
48874;BME280;66155;46.204;5.220;2023-03-20T07:05:25;99223.41;;;9.69;71.92
48874;BME280;66155;46.204;5.220;2023-03-20T07:10:26;99229.84;;;9.90;72.14
48874;BME280;66155;46.204;5.220;2023-03-20T07:15:27;99235.38;;;9.94;72.22
48874;BME280;66155;46.204;5.220;2023-03-20T07:20:29;99224.41;;;9.80;72.08
48874;BME280;66155;46.204;5.220;2023-03-20T07:25:29;99226.22;;;9.67;72.09
48874;BME280;66155;46.204;5.220;2023-03-20T07:30:31;99220.34;;;9.84;71.68
48874;BME280;66155;46.204;5.220;2023-03-20T07:35:32;99222.50;;;9.87;71.52
48874;BME280;66155;46.204;5.220;2023-03-20T07:40:32;99227.03;;;9.92;70.22
48874;BME280;66155;46.204;5.220;2023-03-20T07:45:33;99226.91;;;9.86;69.20
48874;BME280;66155;46.204;5.220;2023-03-20T07:50:33;99226.44;;;10.01;68.87
48874;BME280;66155;46.204;5.220;2023-03-20T07:55:34;99233.78;;;10.04;68.66
48874;BME280;66155;46.204;5.220;2023-03-20T08:00:34;99238.06;;;10.11;68.77
48874;BME280;66155;46.204;5.220;2023-03-20T08:05:36;99239.31;;;10.20;67.64
48874;BME280;66155;46.204;5.220;2023-03-20T08:10:36;99249.63;;;10.15;67.86
48874;BME280;66155;46.204;5.220;2023-03-20T08:15:37;99250.94;;;10.29;67.98
48874;BME280;66155;46.204;5.220;2023-03-20T08:20:38;99255.25;;;10.35;67.97
48874;BME280;66155;46.204;5.220;2023-03-20T08:25:38;99258.69;;;10.36;68.20
48874;BME280;66155;46.204;5.220;2023-03-20T08:30:39;99267.19;;;10.60;67.21
48874;BME280;66155;46.204;5.220;2023-03-20T08:35:39;99266.88;;;10.56;67.59
48874;BME280;66155;46.204;5.220;2023-03-20T08:40:41;99266.53;;;10.53;67.63
48874;BME280;66155;46.204;5.220;2023-03-20T08:45:41;99276.91;;;10.36;67.82
48874;BME280;66155;46.204;5.220;2023-03-20T08:50:42;99290.25;;;10.16;68.49
48874;BME280;66155;46.204;5.220;2023-03-20T08:55:51;99284.72;;;10.36;67.51
48874;BME280;66155;46.204;5.220;2023-03-20T09:00:51;99287.38;;;10.53;67.29
48874;BME280;66155;46.204;5.220;2023-03-20T09:05:52;99294.69;;;10.68;66.63
48874;BME280;66155;46.204;5.220;2023-03-20T09:10:52;99302.91;;;10.48;67.01
48874;BME280;66155;46.204;5.220;2023-03-20T09:15:54;99301.72;;;10.67;66.95
48874;BME280;66155;46.204;5.220;2023-03-20T09:20:55;99300.28;;;11.17;66.11
48874;BME280;66155;46.204;5.220;2023-03-20T09:25:56;99302.97;;;11.22;65.26
48874;BME280;66155;46.204;5.220;2023-03-20T09:30:58;99301.41;;;11.38;64.98
48874;BME280;66155;46.204;5.220;2023-03-20T09:36:01;99315.16;;;11.33;65.13
48874;BME280;66155;46.204;5.220;2023-03-20T09:41:04;99315.47;;;11.37;65.67
48874;BME280;66155;46.204;5.220;2023-03-20T09:56:31;99315.88;;;11.29;64.97
48874;BME280;66155;46.204;5.220;2023-03-20T10:06:42;99313.56;;;11.15;64.80
48874;BME280;66155;46.204;5.220;2023-03-20T10:22:35;99305.69;;;11.61;64.16
48874;BME280;66155;46.204;5.220;2023-03-20T10:27:43;99295.06;;;11.85;62.44
48874;BME280;66155;46.204;5.220;2023-03-20T10:38:27;99289.78;;;11.96;62.19
48874;BME280;66155;46.204;5.220;2023-03-20T10:43:32;99283.94;;;12.06;62.04
48874;BME280;66155;46.204;5.220;2023-03-20T10:49:03;99297.63;;;11.96;60.35
48874;BME280;66155;46.204;5.220;2023-03-20T10:54:23;99293.56;;;12.06;59.03
48874;BME280;66155;46.204;5.220;2023-03-20T10:59:34;99282.16;;;12.34;60.23
48874;BME280;66155;46.204;5.220;2023-03-20T11:04:37;99271.06;;;12.44;55.20
48874;BME280;66155;46.204;5.220;2023-03-20T11:09:38;99274.00;;;12.74;56.91
48874;BME280;66155;46.204;5.220;2023-03-20T11:14:38;99262.81;;;13.06;56.25
48874;BME280;66155;46.204;5.220;2023-03-20T11:19:40;99257.44;;;13.23;55.97
48874;BME280;66155;46.204;5.220;2023-03-20T11:24:43;99265.44;;;13.39;56.19
48874;BME280;66155;46.204;5.220;2023-03-20T11:29:47;99263.53;;;13.29;55.44
48874;BME280;66155;46.204;5.220;2023-03-20T11:34:48;99258.00;;;13.25;54.81
48874;BME280;66155;46.204;5.220;2023-03-20T11:45:16;99249.38;;;13.62;53.37
48874;BME280;66155;46.204;5.220;2023-03-20T11:50:36;99239.03;;;13.40;51.36
48874;BME280;66155;46.204;5.220;2023-03-20T11:55:38;99232.66;;;13.68;52.59
48874;BME280;66155;46.204;5.220;2023-03-20T12:00:39;99225.88;;;13.73;52.16
48874;BME280;66155;46.204;5.220;2023-03-20T12:05:41;99224.06;;;13.78;52.55
48874;BME280;66155;46.204;5.220;2023-03-20T12:10:48;99208.97;;;13.96;52.54
48874;BME280;66155;46.204;5.220;2023-03-20T12:15:58;99205.63;;;14.05;51.50
48874;BME280;66155;46.204;5.220;2023-03-20T12:21:10;99188.06;;;14.11;51.83
48874;BME280;66155;46.204;5.220;2023-03-20T12:26:17;99179.47;;;14.31;51.23
48874;BME280;66155;46.204;5.220;2023-03-20T12:31:34;99170.03;;;14.25;50.48
48874;BME280;66155;46.204;5.220;2023-03-20T12:36:42;99156.41;;;14.18;50.53
48874;BME280;66155;46.204;5.220;2023-03-20T12:52:22;99136.22;;;14.29;49.39
48874;BME280;66155;46.204;5.220;2023-03-20T13:13:33;99107.97;;;14.67;47.88
48874;BME280;66155;46.204;5.220;2023-03-20T13:19:06;99111.06;;;15.10;48.04
48874;BME280;66155;46.204;5.220;2023-03-20T13:29:40;99105.13;;;15.80;46.96
48874;BME280;66155;46.204;5.220;2023-03-20T13:40:22;99105.00;;;17.33;46.44
48874;BME280;66155;46.204;5.220;2023-03-20T13:45:34;99103.75;;;17.92;45.01
48874;BME280;66155;46.204;5.220;2023-03-20T13:50:44;99101.16;;;18.77;40.84
48874;BME280;66155;46.204;5.220;2023-03-20T13:56:02;99089.06;;;20.01;39.82
48874;BME280;66155;46.204;5.220;2023-03-20T14:01:20;99085.94;;;20.98;39.75
48874;BME280;66155;46.204;5.220;2023-03-20T14:11:34;99081.56;;;20.17;39.08
48874;BME280;66155;46.204;5.220;2023-03-20T14:16:36;99071.19;;;20.74;36.02
48874;BME280;66155;46.204;5.220;2023-03-20T14:21:36;99060.59;;;23.27;34.62
48874;BME280;66155;46.204;5.220;2023-03-20T14:26:37;99061.13;;;24.38;33.11
48874;BME280;66155;46.204;5.220;2023-03-20T14:31:41;99055.00;;;24.71;32.70
48874;BME280;66155;46.204;5.220;2023-03-20T14:36:51;99052.88;;;22.49;33.06
48874;BME280;66155;46.204;5.220;2023-03-20T14:42:20;99049.72;;;23.62;31.70
48874;BME280;66155;46.204;5.220;2023-03-20T14:57:53;99041.31;;;25.99;29.51
48874;BME280;66155;46.204;5.220;2023-03-20T15:08:07;99030.03;;;25.78;28.65
48874;BME280;66155;46.204;5.220;2023-03-20T15:13:09;99023.25;;;25.28;28.78
48874;BME280;66155;46.204;5.220;2023-03-20T15:18:12;99028.78;;;24.15;29.59
48874;BME280;66155;46.204;5.220;2023-03-20T15:23:13;99031.06;;;23.41;29.76
48874;BME280;66155;46.204;5.220;2023-03-20T15:28:16;99023.59;;;21.93;30.77
48874;BME280;66155;46.204;5.220;2023-03-20T15:38:31;99030.91;;;19.23;34.33
48874;BME280;66155;46.204;5.220;2023-03-20T15:43:32;99034.00;;;18.69;35.38
48874;BME280;66155;46.204;5.220;2023-03-20T15:48:34;99036.78;;;18.45;35.89
48874;BME280;66155;46.204;5.220;2023-03-20T15:53:37;99044.72;;;18.26;36.98
48874;BME280;66155;46.204;5.220;2023-03-20T15:58:40;99030.09;;;18.01;37.69
48874;BME280;66155;46.204;5.220;2023-03-20T16:03:41;99026.16;;;17.79;37.92
48874;BME280;66155;46.204;5.220;2023-03-20T16:08:42;99025.66;;;17.39;38.67
48874;BME280;66155;46.204;5.220;2023-03-20T16:13:46;99025.72;;;17.53;38.89
48874;BME280;66155;46.204;5.220;2023-03-20T16:18:48;99028.72;;;17.65;39.00
48874;BME280;66155;46.204;5.220;2023-03-20T16:23:51;99019.97;;;18.08;39.06
48874;BME280;66155;46.204;5.220;2023-03-20T16:28:56;99026.72;;;19.08;37.05
48874;BME280;66155;46.204;5.220;2023-03-20T16:33:58;99036.56;;;19.44;36.66
48874;BME280;66155;46.204;5.220;2023-03-20T16:44:16;99022.38;;;19.90;36.07
48874;BME280;66155;46.204;5.220;2023-03-20T16:54:34;99047.63;;;19.96;35.62
48874;BME280;66155;46.204;5.220;2023-03-20T16:59:37;99042.16;;;19.42;35.93
48874;BME280;66155;46.204;5.220;2023-03-20T17:04:39;99045.91;;;18.99;36.56
48874;BME280;66155;46.204;5.220;2023-03-20T17:15:16;99041.66;;;18.38;37.02
48874;BME280;66155;46.204;5.220;2023-03-20T17:20:22;99039.31;;;18.17;37.11
48874;BME280;66155;46.204;5.220;2023-03-20T17:25:23;99037.56;;;17.75;37.43
48874;BME280;66155;46.204;5.220;2023-03-20T17:30:24;99040.09;;;17.18;38.63
48874;BME280;66155;46.204;5.220;2023-03-20T17:35:24;99037.31;;;16.80;39.20
48874;BME280;66155;46.204;5.220;2023-03-20T17:40:25;99036.00;;;16.24;40.13
48874;BME280;66155;46.204;5.220;2023-03-20T17:45:26;99035.78;;;16.15;40.14
48874;BME280;66155;46.204;5.220;2023-03-20T17:50:26;99033.56;;;15.93;40.62
48874;BME280;66155;46.204;5.220;2023-03-20T17:55:27;99033.22;;;15.60;41.43
48874;BME280;66155;46.204;5.220;2023-03-20T18:00:27;99038.81;;;15.38;41.45
48874;BME280;66155;46.204;5.220;2023-03-20T18:05:27;99044.13;;;15.23;41.77
48874;BME280;66155;46.204;5.220;2023-03-20T18:10:29;99053.09;;;15.06;42.19
48874;BME280;66155;46.204;5.220;2023-03-20T18:15:34;99056.03;;;14.63;43.64
48874;BME280;66155;46.204;5.220;2023-03-20T18:20:37;99064.47;;;14.60;43.53
48874;BME280;66155;46.204;5.220;2023-03-20T18:25:40;99064.94;;;14.52;43.01
48874;BME280;66155;46.204;5.220;2023-03-20T18:30:41;99067.81;;;14.35;43.70
48874;BME280;66155;46.204;5.220;2023-03-20T18:35:42;99066.75;;;14.16;43.96
48874;BME280;66155;46.204;5.220;2023-03-20T18:40:43;99062.53;;;13.99;44.39
48874;BME280;66155;46.204;5.220;2023-03-20T18:45:46;99052.84;;;13.90;44.98
48874;BME280;66155;46.204;5.220;2023-03-20T18:50:47;99055.44;;;13.84;44.92
48874;BME280;66155;46.204;5.220;2023-03-20T18:55:49;99058.03;;;13.74;45.27
48874;BME280;66155;46.204;5.220;2023-03-20T19:00:52;99050.44;;;13.73;45.53
48874;BME280;66155;46.204;5.220;2023-03-20T19:05:55;99039.16;;;13.67;45.82
48874;BME280;66155;46.204;5.220;2023-03-20T19:10:57;99046.69;;;13.48;46.89
48874;BME280;66155;46.204;5.220;2023-03-20T19:15:57;99048.50;;;13.47;46.28
48874;BME280;66155;46.204;5.220;2023-03-20T19:20:57;99043.22;;;13.37;46.58
48874;BME280;66155;46.204;5.220;2023-03-20T19:25:58;99041.41;;;13.43;46.22
48874;BME280;66155;46.204;5.220;2023-03-20T19:31:00;99033.56;;;13.43;46.15
48874;BME280;66155;46.204;5.220;2023-03-20T19:36:01;99038.53;;;13.39;46.58
48874;BME280;66155;46.204;5.220;2023-03-20T19:41:02;99035.41;;;13.42;46.25
48874;BME280;66155;46.204;5.220;2023-03-20T19:46:03;99026.25;;;13.45;46.13
48874;BME280;66155;46.204;5.220;2023-03-20T19:51:03;99020.50;;;13.48;46.22
48874;BME280;66155;46.204;5.220;2023-03-20T19:56:04;99022.09;;;13.54;46.49
48874;BME280;66155;46.204;5.220;2023-03-20T20:01:05;99020.03;;;13.61;46.24
48874;BME280;66155;46.204;5.220;2023-03-20T20:06:06;99017.16;;;13.68;46.10
48874;BME280;66155;46.204;5.220;2023-03-20T20:11:07;99015.34;;;13.68;46.05
48874;BME280;66155;46.204;5.220;2023-03-20T20:16:11;99017.16;;;13.63;46.75
48874;BME280;66155;46.204;5.220;2023-03-20T20:21:11;99013.72;;;13.57;46.77
48874;BME280;66155;46.204;5.220;2023-03-20T20:26:11;99012.69;;;13.58;46.89
48874;BME280;66155;46.204;5.220;2023-03-20T20:31:12;99004.03;;;13.53;47.13
48874;BME280;66155;46.204;5.220;2023-03-20T20:36:12;99013.44;;;13.48;47.31
48874;BME280;66155;46.204;5.220;2023-03-20T20:41:15;99012.13;;;13.46;47.58
48874;BME280;66155;46.204;5.220;2023-03-20T20:46:16;99010.28;;;13.41;47.85
48874;BME280;66155;46.204;5.220;2023-03-20T20:51:17;99007.66;;;13.36;48.08
48874;BME280;66155;46.204;5.220;2023-03-20T20:56:17;99012.88;;;13.31;48.52
48874;BME280;66155;46.204;5.220;2023-03-20T21:01:18;99006.00;;;13.30;48.46
48874;BME280;66155;46.204;5.220;2023-03-20T21:06:18;99012.28;;;13.24;49.05
48874;BME280;66155;46.204;5.220;2023-03-20T21:11:19;99013.81;;;13.20;48.93
48874;BME280;66155;46.204;5.220;2023-03-20T21:16:20;99006.22;;;13.13;49.21
48874;BME280;66155;46.204;5.220;2023-03-20T21:21:20;99013.75;;;13.04;49.39
48874;BME280;66155;46.204;5.220;2023-03-20T21:26:21;99008.00;;;13.02;49.84
48874;BME280;66155;46.204;5.220;2023-03-20T21:31:23;99003.56;;;13.03;49.55
48874;BME280;66155;46.204;5.220;2023-03-20T21:36:25;98997.53;;;13.02;49.46
48874;BME280;66155;46.204;5.220;2023-03-20T21:41:25;98992.50;;;12.90;49.92
48874;BME280;66155;46.204;5.220;2023-03-20T21:46:26;98989.81;;;12.80;50.00
48874;BME280;66155;46.204;5.220;2023-03-20T21:51:26;98991.34;;;12.71;50.58
48874;BME280;66155;46.204;5.220;2023-03-20T21:56:27;98996.28;;;12.67;50.77
48874;BME280;66155;46.204;5.220;2023-03-20T22:01:27;98993.69;;;12.67;50.75
48874;BME280;66155;46.204;5.220;2023-03-20T22:06:28;98993.16;;;12.65;51.05
48874;BME280;66155;46.204;5.220;2023-03-20T22:11:28;98993.66;;;12.62;50.89
48874;BME280;66155;46.204;5.220;2023-03-20T22:16:30;98998.84;;;12.57;51.29
48874;BME280;66155;46.204;5.220;2023-03-20T22:21:30;98983.66;;;12.54;51.28
48874;BME280;66155;46.204;5.220;2023-03-20T22:26:31;98981.81;;;12.49;51.40
48874;BME280;66155;46.204;5.220;2023-03-20T22:31:31;98990.88;;;12.36;51.54
48874;BME280;66155;46.204;5.220;2023-03-20T22:36:31;98995.19;;;12.26;51.73
48874;BME280;66155;46.204;5.220;2023-03-20T22:41:32;98994.91;;;12.17;51.91
48874;BME280;66155;46.204;5.220;2023-03-20T22:46:32;99000.31;;;12.10;52.05
48874;BME280;66155;46.204;5.220;2023-03-20T22:51:33;98996.84;;;12.00;51.94
48874;BME280;66155;46.204;5.220;2023-03-20T22:56:34;98990.41;;;11.85;52.39
48874;BME280;66155;46.204;5.220;2023-03-20T23:01:35;98989.31;;;11.81;52.37
48874;BME280;66155;46.204;5.220;2023-03-20T23:06:35;98981.69;;;11.74;52.34
48874;BME280;66155;46.204;5.220;2023-03-20T23:11:38;98984.13;;;11.59;52.43
48874;BME280;66155;46.204;5.220;2023-03-20T23:16:39;98975.72;;;11.30;53.97
48874;BME280;66155;46.204;5.220;2023-03-20T23:21:40;98972.50;;;10.78;54.88
48874;BME280;66155;46.204;5.220;2023-03-20T23:26:41;98959.66;;;10.94;54.45
48874;BME280;66155;46.204;5.220;2023-03-20T23:31:41;98958.03;;;11.10;54.04
48874;BME280;66155;46.204;5.220;2023-03-20T23:36:42;98952.41;;;11.18;54.11
48874;BME280;66155;46.204;5.220;2023-03-20T23:41:42;98941.72;;;11.19;54.03
48874;BME280;66155;46.204;5.220;2023-03-20T23:46:43;98945.41;;;11.23;54.14
48874;BME280;66155;46.204;5.220;2023-03-20T23:51:43;98937.59;;;11.23;53.84
48874;BME280;66155;46.204;5.220;2023-03-20T23:56:43;98934.69;;;11.20;54.22
